sensor_id;sensor_type;location;lat;lon;timestamp;pressure;altitude;pressure_sealevel;temperature;humidity
10638;BME280;47007;49.252;8.904;2023-04-24T00:00:37;98703.53;;;12.49;100.00
10638;BME280;47007;49.252;8.904;2023-04-24T00:01:22;98683.19;;;12.43;100.00
10638;BME280;47007;49.252;8.904;2023-04-24T00:02:03;98688.66;;;12.48;100.00
10638;BME280;47007;49.252;8.904;2023-04-24T00:02:45;98702.44;;;12.57;100.00
10638;BME280;47007;49.252;8.904;2023-04-24T00:03:30;98686.78;;;12.49;100.00
10638;BME280;47007;49.252;8.904;2023-04-24T00:04:12;98692.25;;;12.54;100.00
10638;BME280;47007;49.252;8.904;2023-04-24T00:04:58;98702.81;;;12.61;100.00
10638;BME280;47007;49.252;8.904;2023-04-24T00:05:44;98700.72;;;12.63;100.00
10638;BME280;47007;49.252;8.904;2023-04-24T00:06:26;98687.53;;;12.56;100.00
10638;BME280;47007;49.252;8.904;2023-04-24T00:07:14;98689.16;;;12.57;100.00
10638;BME280;47007;49.252;8.904;2023-04-24T00:07:58;98696.31;;;12.56;100.00
10638;BME280;47007;49.252;8.904;2023-04-24T00:08:39;98640.91;;;12.23;100.00
10638;BME280;47007;49.252;8.904;2023-04-24T00:09:21;98687.16;;;12.52;100.00
10638;BME280;47007;49.252;8.904;2023-04-24T00:10:03;98708.34;;;12.59;100.00
10638;BME280;47007;49.252;8.904;2023-04-24T00:10:45;98682.97;;;12.45;100.00
10638;BME280;47007;49.252;8.904;2023-04-24T00:11:27;98700.94;;;12.61;100.00
10638;BME280;47007;49.252;8.904;2023-04-24T00:12:09;98696.44;;;12.62;100.00
10638;BME280;47007;49.252;8.904;2023-04-24T00:12:51;98684.66;;;12.57;100.00
10638;BME280;47007;49.252;8.904;2023-04-24T00:13:32;98692.31;;;12.66;100.00
10638;BME280;47007;49.252;8.904;2023-04-24T00:14:14;98687.44;;;12.63;100.00
10638;BME280;47007;49.252;8.904;2023-04-24T00:14:56;98696.75;;;12.72;100.00
10638;BME280;47007;49.252;8.904;2023-04-24T00:15:38;98684.78;;;12.63;100.00
10638;BME280;47007;49.252;8.904;2023-04-24T00:16:20;98693.88;;;12.73;100.00
10638;BME280;47007;49.252;8.904;2023-04-24T00:17:02;98694.66;;;12.74;100.00
10638;BME280;47007;49.252;8.904;2023-04-24T00:17:44;98687.72;;;12.73;100.00
10638;BME280;47007;49.252;8.904;2023-04-24T00:18:26;98661.22;;;12.66;100.00
10638;BME280;47007;49.252;8.904;2023-04-24T00:19:07;98633.19;;;12.52;100.00
10638;BME280;47007;49.252;8.904;2023-04-24T00:19:49;98670.41;;;12.82;100.00
10638;BME280;47007;49.252;8.904;2023-04-24T00:20:32;98685.25;;;12.89;100.00
10638;BME280;47007;49.252;8.904;2023-04-24T00:21:15;98672.75;;;12.90;100.00
10638;BME280;47007;49.252;8.904;2023-04-24T00:21:59;98674.16;;;12.92;100.00
10638;BME280;47007;49.252;8.904;2023-04-24T00:22:41;98661.41;;;12.83;100.00
10638;BME280;47007;49.252;8.904;2023-04-24T00:23:22;98679.31;;;12.87;100.00
10638;BME280;47007;49.252;8.904;2023-04-24T00:24:04;98621.41;;;12.48;100.00
10638;BME280;47007;49.252;8.904;2023-04-24T00:24:46;98674.56;;;12.78;100.00
10638;BME280;47007;49.252;8.904;2023-04-24T00:25:28;98621.47;;;12.41;100.00
10638;BME280;47007;49.252;8.904;2023-04-24T00:26:10;98677.09;;;12.73;100.00
10638;BME280;47007;49.252;8.904;2023-04-24T00:26:51;98652.59;;;12.52;100.00
10638;BME280;47007;49.252;8.904;2023-04-24T00:27:33;98689.03;;;12.82;100.00
10638;BME280;47007;49.252;8.904;2023-04-24T00:28:16;98681.22;;;12.69;100.00
10638;BME280;47007;49.252;8.904;2023-04-24T00:28:58;98624.78;;;12.37;100.00
10638;BME280;47007;49.252;8.904;2023-04-24T00:29:41;98659.22;;;12.62;100.00
10638;BME280;47007;49.252;8.904;2023-04-24T00:30:23;98679.00;;;12.66;100.00
10638;BME280;47007;49.252;8.904;2023-04-24T00:31:05;98687.25;;;12.76;100.00
10638;BME280;47007;49.252;8.904;2023-04-24T00:31:46;98692.56;;;12.76;100.00
10638;BME280;47007;49.252;8.904;2023-04-24T00:32:28;98671.03;;;12.66;100.00
10638;BME280;47007;49.252;8.904;2023-04-24T00:33:10;98687.84;;;12.78;100.00
10638;BME280;47007;49.252;8.904;2023-04-24T00:33:51;98663.66;;;12.68;100.00
10638;BME280;47007;49.252;8.904;2023-04-24T00:34:33;98686.59;;;12.80;100.00
10638;BME280;47007;49.252;8.904;2023-04-24T00:35:15;98689.84;;;12.82;100.00
10638;BME280;47007;49.252;8.904;2023-04-24T00:35:57;98693.75;;;12.80;100.00
10638;BME280;47007;49.252;8.904;2023-04-24T00:36:38;98692.56;;;12.76;100.00
10638;BME280;47007;49.252;8.904;2023-04-24T00:37:20;98680.31;;;12.75;100.00
10638;BME280;47007;49.252;8.904;2023-04-24T00:38:02;98680.03;;;12.65;100.00
10638;BME280;47007;49.252;8.904;2023-04-24T00:38:43;98694.66;;;12.74;100.00
10638;BME280;47007;49.252;8.904;2023-04-24T00:39:25;98697.91;;;12.76;100.00
10638;BME280;47007;49.252;8.904;2023-04-24T00:40:07;98672.16;;;12.58;100.00
10638;BME280;47007;49.252;8.904;2023-04-24T00:40:49;98700.09;;;12.79;100.00
10638;BME280;47007;49.252;8.904;2023-04-24T00:41:31;98678.56;;;12.69;100.00
10638;BME280;47007;49.252;8.904;2023-04-24T00:42:13;98676.50;;;12.71;100.00
10638;BME280;47007;49.252;8.904;2023-04-24T00:42:55;98698.50;;;12.78;100.00
10638;BME280;47007;49.252;8.904;2023-04-24T00:43:37;98655.34;;;12.46;100.00
10638;BME280;47007;49.252;8.904;2023-04-24T00:44:19;98686.41;;;12.64;100.00
10638;BME280;47007;49.252;8.904;2023-04-24T00:45:00;98693.13;;;12.66;100.00
10638;BME280;47007;49.252;8.904;2023-04-24T00:45:44;98694.38;;;12.64;100.00
10638;BME280;47007;49.252;8.904;2023-04-24T00:46:26;98698.06;;;12.63;100.00
10638;BME280;47007;49.252;8.904;2023-04-24T00:47:08;98663.38;;;12.39;100.00
10638;BME280;47007;49.252;8.904;2023-04-24T00:47:52;98695.28;;;12.57;100.00
10638;BME280;47007;49.252;8.904;2023-04-24T00:48:34;98689.59;;;12.54;100.00
10638;BME280;47007;49.252;8.904;2023-04-24T00:49:16;98688.19;;;12.51;100.00
10638;BME280;47007;49.252;8.904;2023-04-24T00:49:57;98695.88;;;12.59;100.00
10638;BME280;47007;49.252;8.904;2023-04-24T00:50:39;98666.03;;;12.39;100.00
10638;BME280;47007;49.252;8.904;2023-04-24T00:51:21;98686.00;;;12.48;100.00
10638;BME280;47007;49.252;8.904;2023-04-24T00:52:02;98694.47;;;12.57;100.00
10638;BME280;47007;49.252;8.904;2023-04-24T00:52:49;98685.47;;;12.58;100.00
10638;BME280;47007;49.252;8.904;2023-04-24T00:53:30;98692.31;;;12.66;100.00
10638;BME280;47007;49.252;8.904;2023-04-24T00:54:13;98689.44;;;12.67;100.00
10638;BME280;47007;49.252;8.904;2023-04-24T00:54:54;98693.59;;;12.75;100.00
10638;BME280;47007;49.252;8.904;2023-04-24T00:55:38;98667.19;;;12.62;100.00
10638;BME280;47007;49.252;8.904;2023-04-24T00:56:20;98689.31;;;12.74;100.00
10638;BME280;47007;49.252;8.904;2023-04-24T00:57:05;98684.47;;;12.71;100.00
10638;BME280;47007;49.252;8.904;2023-04-24T00:57:48;98693.13;;;12.66;100.00
10638;BME280;47007;49.252;8.904;2023-04-24T00:58:30;98687.00;;;12.66;100.00
10638;BME280;47007;49.252;8.904;2023-04-24T00:59:14;98687.00;;;12.66;100.00
10638;BME280;47007;49.252;8.904;2023-04-24T00:59:57;98673.78;;;12.59;100.00
10638;BME280;47007;49.252;8.904;2023-04-24T01:00:39;98670.91;;;12.61;100.00
10638;BME280;47007;49.252;8.904;2023-04-24T01:01:21;98687.13;;;12.71;100.00
10638;BME280;47007;49.252;8.904;2023-04-24T01:02:05;98678.78;;;12.67;100.00
10638;BME280;47007;49.252;8.904;2023-04-24T01:02:47;98682.97;;;12.75;100.00
10638;BME280;47007;49.252;8.904;2023-04-24T01:03:31;98664.25;;;12.70;100.00
10638;BME280;47007;49.252;8.904;2023-04-24T01:04:16;98680.09;;;12.76;100.00
10638;BME280;47007;49.252;8.904;2023-04-24T01:05:00;98681.50;;;12.79;100.00
10638;BME280;47007;49.252;8.904;2023-04-24T01:05:42;98681.72;;;12.77;100.00
10638;BME280;47007;49.252;8.904;2023-04-24T01:06:27;98687.41;;;12.81;100.00
10638;BME280;47007;49.252;8.904;2023-04-24T01:07:09;98683.56;;;12.77;100.00
10638;BME280;47007;49.252;8.904;2023-04-24T01:07:52;98675.25;;;12.73;100.00
10638;BME280;47007;49.252;8.904;2023-04-24T01:08:34;98684.25;;;12.72;100.00
10638;BME280;47007;49.252;8.904;2023-04-24T01:09:18;98688.38;;;12.68;100.00
10638;BME280;47007;49.252;8.904;2023-04-24T01:10:00;98661.75;;;12.56;100.00
10638;BME280;47007;49.252;8.904;2023-04-24T01:10:43;98677.38;;;12.65;100.00
10638;BME280;47007;49.252;8.904;2023-04-24T01:11:26;98678.41;;;12.64;100.00
10638;BME280;47007;49.252;8.904;2023-04-24T01:12:07;98666.97;;;12.63;100.00
10638;BME280;47007;49.252;8.904;2023-04-24T01:12:51;98677.59;;;12.63;100.00
10638;BME280;47007;49.252;8.904;2023-04-24T01:13:33;98674.94;;;12.63;100.00
10638;BME280;47007;49.252;8.904;2023-04-24T01:14:17;98675.63;;;12.58;100.00
10638;BME280;47007;49.252;8.904;2023-04-24T01:14:58;98678.53;;;12.57;100.00
10638;BME280;47007;49.252;8.904;2023-04-24T01:15:40;98678.16;;;12.53;100.00
10638;BME280;47007;49.252;8.904;2023-04-24T01:16:23;98667.00;;;12.45;100.00
10638;BME280;47007;49.252;8.904;2023-04-24T01:17:05;98680.44;;;12.50;100.00
10638;BME280;47007;49.252;8.904;2023-04-24T01:17:47;98676.03;;;12.44;100.00
10638;BME280;47007;49.252;8.904;2023-04-24T01:18:29;98673.97;;;12.46;100.00
10638;BME280;47007;49.252;8.904;2023-04-24T01:19:11;98679.50;;;12.44;100.00
10638;BME280;47007;49.252;8.904;2023-04-24T01:19:53;98674.25;;;12.38;100.00
10638;BME280;47007;49.252;8.904;2023-04-24T01:20:40;98673.59;;;12.42;100.00
10638;BME280;47007;49.252;8.904;2023-04-24T01:21:23;98674.03;;;12.39;100.00
10638;BME280;47007;49.252;8.904;2023-04-24T01:22:11;98680.75;;;12.42;100.00
10638;BME280;47007;49.252;8.904;2023-04-24T01:22:54;98675.06;;;12.38;100.00
10638;BME280;47007;49.252;8.904;2023-04-24T01:23:37;98678.31;;;12.40;100.00
10638;BME280;47007;49.252;8.904;2023-04-24T01:24:19;98682.59;;;12.41;100.00
10638;BME280;47007;49.252;8.904;2023-04-24T01:25:02;98674.19;;;12.44;100.00
10638;BME280;47007;49.252;8.904;2023-04-24T01:25:44;98660.38;;;12.36;100.00
10638;BME280;47007;49.252;8.904;2023-04-24T01:26:26;98682.75;;;12.46;100.00
10638;BME280;47007;49.252;8.904;2023-04-24T01:27:09;98672.13;;;12.46;100.00
10638;BME280;47007;49.252;8.904;2023-04-24T01:27:51;98656.91;;;12.35;100.00
10638;BME280;47007;49.252;8.904;2023-04-24T01:28:34;98666.25;;;12.38;100.00
10638;BME280;47007;49.252;8.904;2023-04-24T01:29:15;98685.41;;;12.46;100.00
10638;BME280;47007;49.252;8.904;2023-04-24T01:29:57;98667.53;;;12.35;100.00
10638;BME280;47007;49.252;8.904;2023-04-24T01:30:39;98677.88;;;12.43;100.00
10638;BME280;47007;49.252;8.904;2023-04-24T01:31:21;98675.44;;;12.42;100.00
10638;BME280;47007;49.252;8.904;2023-04-24T01:32:04;98671.75;;;12.43;100.00
10638;BME280;47007;49.252;8.904;2023-04-24T01:32:46;98667.53;;;12.35;100.00
10638;BME280;47007;49.252;8.904;2023-04-24T01:33:28;98680.31;;;12.45;100.00
10638;BME280;47007;49.252;8.904;2023-04-24T01:34:10;98665.44;;;12.37;100.00
10638;BME280;47007;49.252;8.904;2023-04-24T01:34:52;98675.44;;;12.42;100.00
10638;BME280;47007;49.252;8.904;2023-04-24T01:35:34;98675.00;;;12.45;100.00
10638;BME280;47007;49.252;8.904;2023-04-24T01:36:17;98678.25;;;12.47;100.00
10638;BME280;47007;49.252;8.904;2023-04-24T01:37:00;98673.75;;;12.47;100.00
10638;BME280;47007;49.252;8.904;2023-04-24T01:37:41;98676.75;;;12.51;100.00
10638;BME280;47007;49.252;8.904;2023-04-24T01:38:23;98670.59;;;12.50;100.00
10638;BME280;47007;49.252;8.904;2023-04-24T01:39:05;98672.97;;;12.58;100.00
10638;BME280;47007;49.252;8.904;2023-04-24T01:39:46;98675.16;;;12.62;100.00
10638;BME280;47007;49.252;8.904;2023-04-24T01:40:28;98674.13;;;12.63;100.00
10638;BME280;47007;49.252;8.904;2023-04-24T01:41:11;98670.09;;;12.60;100.00
10638;BME280;47007;49.252;8.904;2023-04-24T01:41:54;98672.97;;;12.58;100.00
10638;BME280;47007;49.252;8.904;2023-04-24T01:42:36;98664.41;;;12.56;100.00
10638;BME280;47007;49.252;8.904;2023-04-24T01:43:18;98679.00;;;12.66;100.00
10638;BME280;47007;49.252;8.904;2023-04-24T01:44:01;98661.88;;;12.62;100.00
10638;BME280;47007;49.252;8.904;2023-04-24T01:44:43;98639.09;;;12.54;100.00
10638;BME280;47007;49.252;8.904;2023-04-24T01:45:25;98669.34;;;12.71;100.00
10638;BME280;47007;49.252;8.904;2023-04-24T01:46:06;98666.16;;;12.63;100.00
10638;BME280;47007;49.252;8.904;2023-04-24T01:46:50;98676.13;;;12.67;100.00
10638;BME280;47007;49.252;8.904;2023-04-24T01:47:32;98655.47;;;12.51;100.00
10638;BME280;47007;49.252;8.904;2023-04-24T01:48:14;98666.03;;;12.57;100.00
10638;BME280;47007;49.252;8.904;2023-04-24T01:48:56;98647.59;;;12.44;100.00
10638;BME280;47007;49.252;8.904;2023-04-24T01:49:38;98666.31;;;12.49;100.00
10638;BME280;47007;49.252;8.904;2023-04-24T01:50:20;98646.41;;;12.40;100.00
10638;BME280;47007;49.252;8.904;2023-04-24T01:51:02;98676.16;;;12.49;100.00
10638;BME280;47007;49.252;8.904;2023-04-24T01:51:44;98657.19;;;12.45;100.00
10638;BME280;47007;49.252;8.904;2023-04-24T01:52:26;98659.75;;;12.52;100.00
10638;BME280;47007;49.252;8.904;2023-04-24T01:53:08;98652.53;;;12.41;100.00
10638;BME280;47007;49.252;8.904;2023-04-24T01:53:50;98657.78;;;12.47;100.00
10638;BME280;47007;49.252;8.904;2023-04-24T01:54:32;98663.66;;;12.49;100.00
10638;BME280;47007;49.252;8.904;2023-04-24T01:55:13;98644.34;;;12.42;100.00
10638;BME280;47007;49.252;8.904;2023-04-24T01:55:55;98641.53;;;12.37;100.00
10638;BME280;47007;49.252;8.904;2023-04-24T01:56:42;98658.94;;;12.51;100.00
10638;BME280;47007;49.252;8.904;2023-04-24T01:57:25;98657.69;;;12.54;100.00
10638;BME280;47007;49.252;8.904;2023-04-24T01:58:07;98647.81;;;12.43;100.00
10638;BME280;47007;49.252;8.904;2023-04-24T01:58:49;98653.72;;;12.45;100.00
10638;BME280;47007;49.252;8.904;2023-04-24T01:59:33;98659.16;;;12.50;100.00
10638;BME280;47007;49.252;8.904;2023-04-24T02:00:16;98650.47;;;12.43;100.00
10638;BME280;47007;49.252;8.904;2023-04-24T02:01:00;98661.00;;;12.49;100.00
10638;BME280;47007;49.252;8.904;2023-04-24T02:01:42;98629.31;;;12.36;100.00
10638;BME280;47007;49.252;8.904;2023-04-24T02:02:23;98649.56;;;12.49;100.00
10638;BME280;47007;49.252;8.904;2023-04-24T02:03:05;98620.75;;;12.34;100.00
10638;BME280;47007;49.252;8.904;2023-04-24T02:03:47;98651.94;;;12.57;100.00
10638;BME280;47007;49.252;8.904;2023-04-24T02:04:30;98654.38;;;12.58;100.00
10638;BME280;47007;49.252;8.904;2023-04-24T02:05:12;98651.50;;;12.60;100.00
10638;BME280;47007;49.252;8.904;2023-04-24T02:05:53;98617.41;;;12.39;100.00
10638;BME280;47007;49.252;8.904;2023-04-24T02:06:35;98647.00;;;12.61;100.00
10638;BME280;47007;49.252;8.904;2023-04-24T02:07:17;98645.38;;;12.59;100.00
10638;BME280;47007;49.252;8.904;2023-04-24T02:07:58;98633.88;;;12.47;100.00
10638;BME280;47007;49.252;8.904;2023-04-24T02:08:40;98645.59;;;12.58;100.00
10638;BME280;47007;49.252;8.904;2023-04-24T02:09:22;98653.56;;;12.58;100.00
10638;BME280;47007;49.252;8.904;2023-04-24T02:10:05;98620.66;;;12.41;100.00
10638;BME280;47007;49.252;8.904;2023-04-24T02:10:46;98649.34;;;12.50;100.00
10638;BME280;47007;49.252;8.904;2023-04-24T02:11:28;98654.22;;;12.53;100.00
10638;BME280;47007;49.252;8.904;2023-04-24T02:12:11;98655.25;;;12.52;100.00
10638;BME280;47007;49.252;8.904;2023-04-24T02:12:53;98541.72;;;11.81;100.00
10638;BME280;47007;49.252;8.904;2023-04-24T02:13:37;98654.66;;;12.50;100.00
10638;BME280;47007;49.252;8.904;2023-04-24T02:14:20;98637.56;;;12.46;100.00
10638;BME280;47007;49.252;8.904;2023-04-24T02:15:02;98642.06;;;12.46;100.00
10638;BME280;47007;49.252;8.904;2023-04-24T02:15:44;98640.50;;;12.38;100.00
10638;BME280;47007;49.252;8.904;2023-04-24T02:16:26;98646.19;;;12.42;100.00
10638;BME280;47007;49.252;8.904;2023-04-24T02:17:11;98651.28;;;12.43;100.00
10638;BME280;47007;49.252;8.904;2023-04-24T02:17:54;98646.63;;;12.39;100.00
10638;BME280;47007;49.252;8.904;2023-04-24T02:18:36;98648.63;;;12.43;100.00
10638;BME280;47007;49.252;8.904;2023-04-24T02:19:17;98640.38;;;12.33;100.00
10638;BME280;47007;49.252;8.904;2023-04-24T02:19:59;98621.84;;;12.27;100.00
10638;BME280;47007;49.252;8.904;2023-04-24T02:20:41;98655.56;;;12.44;100.00
10638;BME280;47007;49.252;8.904;2023-04-24T02:21:22;98626.50;;;12.31;100.00
10638;BME280;47007;49.252;8.904;2023-04-24T02:22:04;98633.13;;;12.40;100.00
10638;BME280;47007;49.252;8.904;2023-04-24T02:22:46;98635.66;;;12.35;100.00
10638;BME280;47007;49.252;8.904;2023-04-24T02:23:27;98649.81;;;12.47;100.00
10638;BME280;47007;49.252;8.904;2023-04-24T02:24:09;98658.59;;;12.48;100.00
10638;BME280;47007;49.252;8.904;2023-04-24T02:24:51;98640.72;;;12.37;100.00
10638;BME280;47007;49.252;8.904;2023-04-24T02:25:33;98656.16;;;12.46;100.00
10638;BME280;47007;49.252;8.904;2023-04-24T02:26:15;98647.91;;;12.36;100.00
10638;BME280;47007;49.252;8.904;2023-04-24T02:26:58;98661.91;;;12.43;100.00
10638;BME280;47007;49.252;8.904;2023-04-24T02:27:40;98639.78;;;12.31;100.00
10638;BME280;47007;49.252;8.904;2023-04-24T02:28:21;98651.72;;;12.40;100.00
10638;BME280;47007;49.252;8.904;2023-04-24T02:29:04;98636.75;;;12.28;100.00
10638;BME280;47007;49.252;8.904;2023-04-24T02:29:46;98633.50;;;12.26;100.00
10638;BME280;47007;49.252;8.904;2023-04-24T02:30:28;98640.44;;;12.27;100.00
10638;BME280;47007;49.252;8.904;2023-04-24T02:31:09;98601.50;;;12.02;100.00
10638;BME280;47007;49.252;8.904;2023-04-24T02:31:51;98657.13;;;12.34;100.00
10638;BME280;47007;49.252;8.904;2023-04-24T02:32:33;98646.44;;;12.22;100.00
10638;BME280;47007;49.252;8.904;2023-04-24T02:33:15;98655.56;;;12.26;100.00
10638;BME280;47007;49.252;8.904;2023-04-24T02:33:57;98640.59;;;12.13;100.00
10638;BME280;47007;49.252;8.904;2023-04-24T02:34:39;98633.91;;;12.11;100.00
10638;BME280;47007;49.252;8.904;2023-04-24T02:35:20;98651.75;;;12.22;100.00
10638;BME280;47007;49.252;8.904;2023-04-24T02:36:02;98630.44;;;12.10;100.00
10638;BME280;47007;49.252;8.904;2023-04-24T02:36:44;98641.41;;;12.14;100.00
10638;BME280;47007;49.252;8.904;2023-04-24T02:37:25;98646.28;;;12.17;100.00
10638;BME280;47007;49.252;8.904;2023-04-24T02:38:07;98646.50;;;12.15;100.00
10638;BME280;47007;49.252;8.904;2023-04-24T02:38:50;98645.47;;;12.16;100.00
10638;BME280;47007;49.252;8.904;2023-04-24T02:39:32;98643.25;;;12.13;100.00
10638;BME280;47007;49.252;8.904;2023-04-24T02:40:13;98635.59;;;12.05;100.00
10638;BME280;47007;49.252;8.904;2023-04-24T02:40:55;98640.59;;;12.13;100.00
10638;BME280;47007;49.252;8.904;2023-04-24T02:41:37;98630.13;;;12.00;100.00
10638;BME280;47007;49.252;8.904;2023-04-24T02:42:18;98643.47;;;12.12;100.00
10638;BME280;47007;49.252;8.904;2023-04-24T02:43:00;98654.56;;;12.09;100.00
10638;BME280;47007;49.252;8.904;2023-04-24T02:43:42;98649.69;;;12.06;100.00
10638;BME280;47007;49.252;8.904;2023-04-24T02:44:23;98652.19;;;12.01;100.00
10638;BME280;47007;49.252;8.904;2023-04-24T02:45:06;98643.91;;;11.91;100.00
10638;BME280;47007;49.252;8.904;2023-04-24T02:45:48;98649.22;;;11.91;100.00
10638;BME280;47007;49.252;8.904;2023-04-24T02:46:30;98639.50;;;11.84;100.00
10638;BME280;47007;49.252;8.904;2023-04-24T02:47:12;98643.78;;;11.85;100.00
10638;BME280;47007;49.252;8.904;2023-04-24T02:47:53;98638.13;;;11.75;100.00
10638;BME280;47007;49.252;8.904;2023-04-24T02:48:35;98659.25;;;11.88;100.00
10638;BME280;47007;49.252;8.904;2023-04-24T02:49:17;98642.22;;;11.78;100.00
10638;BME280;47007;49.252;8.904;2023-04-24T02:49:58;98647.47;;;11.84;100.00
10638;BME280;47007;49.252;8.904;2023-04-24T02:50:40;98618.19;;;11.66;100.00
10638;BME280;47007;49.252;8.904;2023-04-24T02:51:22;98654.41;;;11.85;100.00
10638;BME280;47007;49.252;8.904;2023-04-24T02:52:03;98657.63;;;11.87;100.00
10638;BME280;47007;49.252;8.904;2023-04-24T02:52:45;98654.84;;;11.82;100.00
10638;BME280;47007;49.252;8.904;2023-04-24T02:53:27;98662.28;;;11.92;100.00
10638;BME280;47007;49.252;8.904;2023-04-24T02:54:08;98659.41;;;11.94;100.00
10638;BME280;47007;49.252;8.904;2023-04-24T02:54:51;98652.84;;;11.96;100.00
10638;BME280;47007;49.252;8.904;2023-04-24T02:55:35;98639.41;;;11.91;100.00
10638;BME280;47007;49.252;8.904;2023-04-24T02:56:17;98654.84;;;12.01;100.00
10638;BME280;47007;49.252;8.904;2023-04-24T02:56:59;98654.03;;;12.00;100.00
10638;BME280;47007;49.252;8.904;2023-04-24T02:57:42;98664.66;;;12.00;100.00
10638;BME280;47007;49.252;8.904;2023-04-24T02:58:24;98649.75;;;11.99;100.00
10638;BME280;47007;49.252;8.904;2023-04-24T02:59:06;98656.69;;;12.00;100.00
10638;BME280;47007;49.252;8.904;2023-04-24T02:59:48;98655.44;;;12.03;100.00
10638;BME280;47007;49.252;8.904;2023-04-24T03:00:30;98640.75;;;12.00;100.00
10638;BME280;47007;49.252;8.904;2023-04-24T03:01:11;98635.22;;;12.02;100.00
10638;BME280;47007;49.252;8.904;2023-04-24T03:01:53;98600.53;;;11.78;100.00
10638;BME280;47007;49.252;8.904;2023-04-24T03:02:35;98643.34;;;12.07;100.00
10638;BME280;47007;49.252;8.904;2023-04-24T03:03:16;98638.09;;;12.00;100.00
10638;BME280;47007;49.252;8.904;2023-04-24T03:03:59;98652.34;;;12.06;100.00
10638;BME280;47007;49.252;8.904;2023-04-24T03:04:41;98631.22;;;11.93;100.00
10638;BME280;47007;49.252;8.904;2023-04-24T03:05:24;98589.09;;;11.60;100.00
10638;BME280;47007;49.252;8.904;2023-04-24T03:06:06;98636.16;;;11.89;100.00
10638;BME280;47007;49.252;8.904;2023-04-24T03:06:49;98640.41;;;11.97;100.00
10638;BME280;47007;49.252;8.904;2023-04-24T03:07:34;98662.66;;;11.96;100.00
10638;BME280;47007;49.252;8.904;2023-04-24T03:08:16;98632.56;;;11.83;100.00
10638;BME280;47007;49.252;8.904;2023-04-24T03:08:58;98644.50;;;11.93;100.00
10638;BME280;47007;49.252;8.904;2023-04-24T03:09:40;98652.69;;;11.91;100.00
10638;BME280;47007;49.252;8.904;2023-04-24T03:10:22;98637.88;;;11.83;100.00
10638;BME280;47007;49.252;8.904;2023-04-24T03:11:04;98653.50;;;11.92;100.00
10638;BME280;47007;49.252;8.904;2023-04-24T03:11:45;98653.28;;;11.93;100.00
10638;BME280;47007;49.252;8.904;2023-04-24T03:12:27;98650.63;;;11.93;100.00
10638;BME280;47007;49.252;8.904;2023-04-24T03:13:09;98648.38;;;11.97;100.00
10638;BME280;47007;49.252;8.904;2023-04-24T03:13:51;98648.72;;;12.00;100.00
10638;BME280;47007;49.252;8.904;2023-04-24T03:14:33;98625.75;;;11.87;100.00
10638;BME280;47007;49.252;8.904;2023-04-24T03:15:16;98646.31;;;11.99;100.00
10638;BME280;47007;49.252;8.904;2023-04-24T03:15:57;98649.75;;;11.99;100.00
10638;BME280;47007;49.252;8.904;2023-04-24T03:16:41;98642.84;;;11.98;100.00
10638;BME280;47007;49.252;8.904;2023-04-24T03:17:23;98641.41;;;11.96;100.00
10638;BME280;47007;49.252;8.904;2023-04-24T03:18:04;98649.19;;;11.97;100.00
10638;BME280;47007;49.252;8.904;2023-04-24T03:18:46;98652.84;;;11.96;100.00
10638;BME280;47007;49.252;8.904;2023-04-24T03:19:28;98653.06;;;11.95;100.00
10638;BME280;47007;49.252;8.904;2023-04-24T03:20:18;98651.44;;;11.94;100.00
10638;BME280;47007;49.252;8.904;2023-04-24T03:21:00;98625.47;;;11.77;100.00
10638;BME280;47007;49.252;8.904;2023-04-24T03:21:42;98651.44;;;11.94;100.00
10638;BME280;47007;49.252;8.904;2023-04-24T03:22:24;98660.00;;;11.96;100.00
10638;BME280;47007;49.252;8.904;2023-04-24T03:23:06;98651.88;;;11.91;100.00
10638;BME280;47007;49.252;8.904;2023-04-24T03:23:49;98658.16;;;11.96;100.00
10638;BME280;47007;49.252;8.904;2023-04-24T03:24:31;98656.75;;;11.94;100.00
10638;BME280;47007;49.252;8.904;2023-04-24T03:25:13;98663.53;;;11.90;100.00
10638;BME280;47007;49.252;8.904;2023-04-24T03:25:55;98674.81;;;11.85;100.00
10638;BME280;47007;49.252;8.904;2023-04-24T03:26:37;98669.56;;;11.78;100.00
10638;BME280;47007;49.252;8.904;2023-04-24T03:27:42;98662.06;;;11.69;100.00
10638;BME280;47007;49.252;8.904;2023-04-24T03:28:50;98682.72;;;11.67;100.00
10638;BME280;47007;49.252;8.904;2023-04-24T03:29:32;98682.78;;;11.60;100.00
10638;BME280;47007;49.252;8.904;2023-04-24T03:30:14;98686.28;;;11.54;100.00
10638;BME280;47007;49.252;8.904;2023-04-24T03:31:07;98678.44;;;11.41;100.00
10638;BME280;47007;49.252;8.904;2023-04-24T03:31:50;98689.88;;;11.41;100.00
10638;BME280;47007;49.252;8.904;2023-04-24T03:32:32;98683.94;;;11.39;100.00
10638;BME280;47007;49.252;8.904;2023-04-24T03:33:15;98690.06;;;11.40;100.00
10638;BME280;47007;49.252;8.904;2023-04-24T03:34:06;98683.81;;;11.34;100.00
10638;BME280;47007;49.252;8.904;2023-04-24T03:34:49;98698.84;;;11.40;100.00
10638;BME280;47007;49.252;8.904;2023-04-24T03:35:31;98692.38;;;11.36;100.00
10638;BME280;47007;49.252;8.904;2023-04-24T03:36:16;98644.03;;;11.03;100.00
10638;BME280;47007;49.252;8.904;2023-04-24T03:36:57;98680.66;;;11.19;100.00
10638;BME280;47007;49.252;8.904;2023-04-24T03:37:39;98670.88;;;11.13;100.00
10638;BME280;47007;49.252;8.904;2023-04-24T03:38:40;98692.88;;;11.20;100.00
10638;BME280;47007;49.252;8.904;2023-04-24T03:39:35;98701.44;;;11.22;100.00
10638;BME280;47007;49.252;8.904;2023-04-24T03:40:19;98683.19;;;11.07;100.00
10638;BME280;47007;49.252;8.904;2023-04-24T03:41:01;98705.97;;;11.15;100.00
10638;BME280;47007;49.252;8.904;2023-04-24T03:41:54;98693.16;;;11.12;100.00
10638;BME280;47007;49.252;8.904;2023-04-24T03:42:40;98655.59;;;10.77;100.00
10638;BME280;47007;49.252;8.904;2023-04-24T03:43:22;98685.50;;;10.97;100.00